sensor_id;sensor_type;location;lat;lon;timestamp;temperature;humidity
48728;DHT22;34527;45.618;5.130;2022-12-24T00:02:00;12.80;99.90
48728;DHT22;34527;45.618;5.130;2022-12-24T00:04:26;12.70;99.90
48728;DHT22;34527;45.618;5.130;2022-12-24T00:06:52;12.80;99.90
48728;DHT22;34527;45.618;5.130;2022-12-24T00:09:18;12.80;99.90
48728;DHT22;34527;45.618;5.130;2022-12-24T00:11:44;12.80;99.90
48728;DHT22;34527;45.618;5.130;2022-12-24T00:14:09;12.80;99.90
48728;DHT22;34527;45.618;5.130;2022-12-24T00:16:35;12.80;99.90
48728;DHT22;34527;45.618;5.130;2022-12-24T00:19:01;12.80;99.90
48728;DHT22;34527;45.618;5.130;2022-12-24T00:21:27;12.70;99.90
48728;DHT22;34527;45.618;5.130;2022-12-24T00:23:53;12.70;99.90
48728;DHT22;34527;45.618;5.130;2022-12-24T00:26:19;12.70;99.90
48728;DHT22;34527;45.618;5.130;2022-12-24T00:28:44;12.70;99.90
48728;DHT22;34527;45.618;5.130;2022-12-24T00:31:13;12.70;99.90
48728;DHT22;34527;45.618;5.130;2022-12-24T00:33:39;12.70;99.90
48728;DHT22;34527;45.618;5.130;2022-12-24T00:36:05;12.70;99.90
48728;DHT22;34527;45.618;5.130;2022-12-24T00:38:31;12.70;99.90
48728;DHT22;34527;45.618;5.130;2022-12-24T00:41:05;12.80;99.90
48728;DHT22;34527;45.618;5.130;2022-12-24T00:46:21;12.80;99.90
48728;DHT22;34527;45.618;5.130;2022-12-24T00:48:48;12.80;99.90
48728;DHT22;34527;45.618;5.130;2022-12-24T00:51:14;12.80;99.90
48728;DHT22;34527;45.618;5.130;2022-12-24T00:53:40;12.80;99.90
48728;DHT22;34527;45.618;5.130;2022-12-24T00:56:06;12.80;99.90
48728;DHT22;34527;45.618;5.130;2022-12-24T00:58:32;12.80;99.90
48728;DHT22;34527;45.618;5.130;2022-12-24T01:00:58;12.90;99.90
48728;DHT22;34527;45.618;5.130;2022-12-24T01:03:24;12.90;99.90
48728;DHT22;34527;45.618;5.130;2022-12-24T01:06:06;12.80;99.90
48728;DHT22;34527;45.618;5.130;2022-12-24T01:08:33;12.80;99.90
48728;DHT22;34527;45.618;5.130;2022-12-24T01:11:00;12.80;99.90
48728;DHT22;34527;45.618;5.130;2022-12-24T01:13:26;12.80;99.90
48728;DHT22;34527;45.618;5.130;2022-12-24T01:15:52;12.80;99.90
48728;DHT22;34527;45.618;5.130;2022-12-24T01:18:18;12.80;99.90
48728;DHT22;34527;45.618;5.130;2022-12-24T01:20:44;12.80;99.90
48728;DHT22;34527;45.618;5.130;2022-12-24T01:23:10;12.80;99.90
48728;DHT22;34527;45.618;5.130;2022-12-24T01:25:37;12.90;99.90
48728;DHT22;34527;45.618;5.130;2022-12-24T01:28:04;12.80;99.90
48728;DHT22;34527;45.618;5.130;2022-12-24T01:30:30;12.80;99.90
48728;DHT22;34527;45.618;5.130;2022-12-24T01:32:57;12.80;99.90
48728;DHT22;34527;45.618;5.130;2022-12-24T01:35:22;12.90;99.90
48728;DHT22;34527;45.618;5.130;2022-12-24T01:37:48;12.80;99.90
48728;DHT22;34527;45.618;5.130;2022-12-24T01:40:16;12.80;99.90
48728;DHT22;34527;45.618;5.130;2022-12-24T01:43:01;12.80;99.90
48728;DHT22;34527;45.618;5.130;2022-12-24T01:48:33;12.80;99.90
48728;DHT22;34527;45.618;5.130;2022-12-24T01:53:52;12.70;99.90
48728;DHT22;34527;45.618;5.130;2022-12-24T01:56:21;12.70;99.90
48728;DHT22;34527;45.618;5.130;2022-12-24T01:58:52;12.70;99.90
48728;DHT22;34527;45.618;5.130;2022-12-24T02:01:20;12.70;99.90
48728;DHT22;34527;45.618;5.130;2022-12-24T02:03:46;12.70;99.90
48728;DHT22;34527;45.618;5.130;2022-12-24T02:06:14;12.60;99.90
48728;DHT22;34527;45.618;5.130;2022-12-24T02:08:42;12.60;99.90
48728;DHT22;34527;45.618;5.130;2022-12-24T02:11:13;12.60;99.90
48728;DHT22;34527;45.618;5.130;2022-12-24T02:13:45;12.60;99.90
48728;DHT22;34527;45.618;5.130;2022-12-24T02:30:16;12.40;99.90
48728;DHT22;34527;45.618;5.130;2022-12-24T02:38:15;12.40;99.90
48728;DHT22;34527;45.618;5.130;2022-12-24T02:40:55;12.40;99.90
48728;DHT22;34527;45.618;5.130;2022-12-24T02:43:27;12.40;99.90
48728;DHT22;34527;45.618;5.130;2022-12-24T02:45:58;12.40;99.90
48728;DHT22;34527;45.618;5.130;2022-12-24T02:48:26;12.40;99.90
48728;DHT22;34527;45.618;5.130;2022-12-24T02:50:55;12.40;99.90
48728;DHT22;34527;45.618;5.130;2022-12-24T02:53:21;12.40;99.90
48728;DHT22;34527;45.618;5.130;2022-12-24T02:58:41;12.30;99.90
48728;DHT22;34527;45.618;5.130;2022-12-24T03:04:21;12.30;99.90
48728;DHT22;34527;45.618;5.130;2022-12-24T03:07:37;12.30;99.90
48728;DHT22;34527;45.618;5.130;2022-12-24T03:10:46;12.30;99.90
48728;DHT22;34527;45.618;5.130;2022-12-24T03:13:15;12.30;99.90
48728;DHT22;34527;45.618;5.130;2022-12-24T03:15:42;12.30;99.90
48728;DHT22;34527;45.618;5.130;2022-12-24T03:18:11;12.30;99.90
48728;DHT22;34527;45.618;5.130;2022-12-24T03:20:53;12.30;99.90
48728;DHT22;34527;45.618;5.130;2022-12-24T03:23:21;12.30;99.90
48728;DHT22;34527;45.618;5.130;2022-12-24T03:25:46;12.30;99.90
48728;DHT22;34527;45.618;5.130;2022-12-24T03:28:14;12.30;99.90
48728;DHT22;34527;45.618;5.130;2022-12-24T03:30:43;12.30;99.90
48728;DHT22;34527;45.618;5.130;2022-12-24T03:33:11;12.30;99.90
48728;DHT22;34527;45.618;5.130;2022-12-24T03:35:37;12.30;99.90
48728;DHT22;34527;45.618;5.130;2022-12-24T03:38:03;12.30;99.90
48728;DHT22;34527;45.618;5.130;2022-12-24T03:40:29;12.30;99.90
48728;DHT22;34527;45.618;5.130;2022-12-24T03:42:55;12.30;99.90
48728;DHT22;34527;45.618;5.130;2022-12-24T03:45:22;12.30;99.90
48728;DHT22;34527;45.618;5.130;2022-12-24T03:47:48;12.30;99.90
48728;DHT22;34527;45.618;5.130;2022-12-24T03:50:14;12.30;99.90
48728;DHT22;34527;45.618;5.130;2022-12-24T03:52:40;12.30;99.90
48728;DHT22;34527;45.618;5.130;2022-12-24T03:55:06;12.30;99.90
48728;DHT22;34527;45.618;5.130;2022-12-24T03:57:32;12.30;99.90
48728;DHT22;34527;45.618;5.130;2022-12-24T03:59:57;12.30;99.90
48728;DHT22;34527;45.618;5.130;2022-12-24T04:02:23;12.30;99.90
48728;DHT22;34527;45.618;5.130;2022-12-24T04:04:49;12.30;99.90
48728;DHT22;34527;45.618;5.130;2022-12-24T04:07:15;12.20;99.90
48728;DHT22;34527;45.618;5.130;2022-12-24T04:09:41;12.20;99.90
48728;DHT22;34527;45.618;5.130;2022-12-24T04:12:07;12.20;99.90
48728;DHT22;34527;45.618;5.130;2022-12-24T04:14:33;12.20;99.90
48728;DHT22;34527;45.618;5.130;2022-12-24T04:16:59;12.20;99.90
48728;DHT22;34527;45.618;5.130;2022-12-24T04:19:25;12.20;99.90
48728;DHT22;34527;45.618;5.130;2022-12-24T04:21:51;12.10;99.90
48728;DHT22;34527;45.618;5.130;2022-12-24T04:24:17;12.20;99.90
48728;DHT22;34527;45.618;5.130;2022-12-24T04:26:42;12.20;99.90
48728;DHT22;34527;45.618;5.130;2022-12-24T04:29:08;12.10;99.90
48728;DHT22;34527;45.618;5.130;2022-12-24T04:31:34;12.10;99.90
48728;DHT22;34527;45.618;5.130;2022-12-24T04:34:00;12.10;99.90
48728;DHT22;34527;45.618;5.130;2022-12-24T04:36:26;12.10;99.90
48728;DHT22;34527;45.618;5.130;2022-12-24T04:38:52;12.00;99.90
48728;DHT22;34527;45.618;5.130;2022-12-24T04:41:20;12.10;99.90
48728;DHT22;34527;45.618;5.130;2022-12-24T04:43:46;12.10;99.90
48728;DHT22;34527;45.618;5.130;2022-12-24T04:46:14;12.10;99.90
48728;DHT22;34527;45.618;5.130;2022-12-24T04:48:43;12.10;99.90
48728;DHT22;34527;45.618;5.130;2022-12-24T04:51:09;12.10;99.90
48728;DHT22;34527;45.618;5.130;2022-12-24T04:53:36;12.10;99.90
48728;DHT22;34527;45.618;5.130;2022-12-24T04:56:05;12.00;99.90
48728;DHT22;34527;45.618;5.130;2022-12-24T04:58:32;12.00;99.90
48728;DHT22;34527;45.618;5.130;2022-12-24T05:01:06;12.00;99.90
48728;DHT22;34527;45.618;5.130;2022-12-24T05:03:33;12.00;99.90
48728;DHT22;34527;45.618;5.130;2022-12-24T05:06:07;12.00;99.90
48728;DHT22;34527;45.618;5.130;2022-12-24T05:08:33;12.00;99.90
48728;DHT22;34527;45.618;5.130;2022-12-24T05:11:00;12.10;99.90
48728;DHT22;34527;45.618;5.130;2022-12-24T05:13:27;12.10;99.90
48728;DHT22;34527;45.618;5.130;2022-12-24T05:15:53;12.10;99.90
48728;DHT22;34527;45.618;5.130;2022-12-24T05:18:19;12.00;99.90
48728;DHT22;34527;45.618;5.130;2022-12-24T05:20:46;12.10;99.90
48728;DHT22;34527;45.618;5.130;2022-12-24T05:23:20;12.10;99.90
48728;DHT22;34527;45.618;5.130;2022-12-24T05:26:14;12.10;99.90
48728;DHT22;34527;45.618;5.130;2022-12-24T05:28:54;12.10;99.90
48728;DHT22;34527;45.618;5.130;2022-12-24T05:31:21;12.00;99.90
48728;DHT22;34527;45.618;5.130;2022-12-24T05:33:47;12.00;99.90
48728;DHT22;34527;45.618;5.130;2022-12-24T05:36:14;12.00;99.90
48728;DHT22;34527;45.618;5.130;2022-12-24T05:38:40;12.00;99.90
48728;DHT22;34527;45.618;5.130;2022-12-24T05:41:06;12.00;99.90
48728;DHT22;34527;45.618;5.130;2022-12-24T05:43:34;12.10;99.90
48728;DHT22;34527;45.618;5.130;2022-12-24T05:46:06;12.00;99.90
48728;DHT22;34527;45.618;5.130;2022-12-24T05:48:33;12.00;99.90
48728;DHT22;34527;45.618;5.130;2022-12-24T05:51:02;12.00;99.90
48728;DHT22;34527;45.618;5.130;2022-12-24T05:53:29;12.00;99.90
48728;DHT22;34527;45.618;5.130;2022-12-24T05:55:54;11.90;99.90
48728;DHT22;34527;45.618;5.130;2022-12-24T05:58:26;11.90;99.90
48728;DHT22;34527;45.618;5.130;2022-12-24T06:00:52;11.90;99.90
48728;DHT22;34527;45.618;5.130;2022-12-24T06:03:18;11.90;99.90
48728;DHT22;34527;45.618;5.130;2022-12-24T06:05:44;11.90;99.90
48728;DHT22;34527;45.618;5.130;2022-12-24T06:08:10;11.90;99.90
48728;DHT22;34527;45.618;5.130;2022-12-24T06:10:36;11.90;99.90
48728;DHT22;34527;45.618;5.130;2022-12-24T06:13:02;11.90;99.90
48728;DHT22;34527;45.618;5.130;2022-12-24T06:15:27;11.90;99.90
48728;DHT22;34527;45.618;5.130;2022-12-24T06:17:53;11.90;99.90
48728;DHT22;34527;45.618;5.130;2022-12-24T06:20:19;11.90;99.90
48728;DHT22;34527;45.618;5.130;2022-12-24T06:22:45;11.80;99.90
48728;DHT22;34527;45.618;5.130;2022-12-24T06:25:11;11.80;99.90
48728;DHT22;34527;45.618;5.130;2022-12-24T06:27:37;11.80;99.90
48728;DHT22;34527;45.618;5.130;2022-12-24T06:30:03;11.80;99.90
48728;DHT22;34527;45.618;5.130;2022-12-24T06:32:30;11.70;99.90
48728;DHT22;34527;45.618;5.130;2022-12-24T06:34:55;11.50;99.90
48728;DHT22;34527;45.618;5.130;2022-12-24T06:37:21;11.60;99.90
48728;DHT22;34527;45.618;5.130;2022-12-24T06:39:47;11.60;99.90
48728;DHT22;34527;45.618;5.130;2022-12-24T06:42:13;11.70;99.90
48728;DHT22;34527;45.618;5.130;2022-12-24T06:44:39;11.70;99.90
48728;DHT22;34527;45.618;5.130;2022-12-24T06:47:05;11.70;99.90
48728;DHT22;34527;45.618;5.130;2022-12-24T06:49:31;11.70;99.90
48728;DHT22;34527;45.618;5.130;2022-12-24T06:51:58;11.70;99.90
48728;DHT22;34527;45.618;5.130;2022-12-24T06:54:24;11.70;99.90
48728;DHT22;34527;45.618;5.130;2022-12-24T06:56:50;11.70;99.90
48728;DHT22;34527;45.618;5.130;2022-12-24T06:59:15;11.80;99.90
48728;DHT22;34527;45.618;5.130;2022-12-24T07:01:41;11.80;99.90
48728;DHT22;34527;45.618;5.130;2022-12-24T07:04:07;11.80;99.90
48728;DHT22;34527;45.618;5.130;2022-12-24T07:06:33;11.70;99.90
48728;DHT22;34527;45.618;5.130;2022-12-24T07:08:59;11.80;99.90
48728;DHT22;34527;45.618;5.130;2022-12-24T07:11:25;11.80;99.90
48728;DHT22;34527;45.618;5.130;2022-12-24T07:13:51;11.70;99.90
48728;DHT22;34527;45.618;5.130;2022-12-24T07:16:17;11.70;99.90
48728;DHT22;34527;45.618;5.130;2022-12-24T07:18:43;11.70;99.90
48728;DHT22;34527;45.618;5.130;2022-12-24T07:21:09;11.70;99.90
48728;DHT22;34527;45.618;5.130;2022-12-24T07:23:35;11.70;99.90
48728;DHT22;34527;45.618;5.130;2022-12-24T07:26:03;11.70;99.90
48728;DHT22;34527;45.618;5.130;2022-12-24T07:28:29;11.70;99.90
48728;DHT22;34527;45.618;5.130;2022-12-24T07:30:56;11.70;99.90
48728;DHT22;34527;45.618;5.130;2022-12-24T07:33:23;11.70;99.90
48728;DHT22;34527;45.618;5.130;2022-12-24T07:36:04;11.80;99.90
48728;DHT22;34527;45.618;5.130;2022-12-24T07:38:30;11.70;99.90
48728;DHT22;34527;45.618;5.130;2022-12-24T07:40:57;11.70;99.90
48728;DHT22;34527;45.618;5.130;2022-12-24T07:43:23;11.70;99.90
48728;DHT22;34527;45.618;5.130;2022-12-24T07:45:49;11.70;99.90
48728;DHT22;34527;45.618;5.130;2022-12-24T07:48:15;11.70;99.90
48728;DHT22;34527;45.618;5.130;2022-12-24T07:50:41;11.70;99.90
48728;DHT22;34527;45.618;5.130;2022-12-24T07:53:07;11.70;99.90
48728;DHT22;34527;45.618;5.130;2022-12-24T07:55:34;11.70;99.90
48728;DHT22;34527;45.618;5.130;2022-12-24T07:58:00;11.70;99.90
48728;DHT22;34527;45.618;5.130;2022-12-24T08:00:26;11.70;99.90
48728;DHT22;34527;45.618;5.130;2022-12-24T08:02:52;11.70;99.90
48728;DHT22;34527;45.618;5.130;2022-12-24T08:05:18;11.70;99.90
48728;DHT22;34527;45.618;5.130;2022-12-24T08:07:44;11.70;99.90
48728;DHT22;34527;45.618;5.130;2022-12-24T08:10:09;11.70;99.90
48728;DHT22;34527;45.618;5.130;2022-12-24T08:12:35;11.70;99.90
48728;DHT22;34527;45.618;5.130;2022-12-24T08:15:01;11.80;99.90
48728;DHT22;34527;45.618;5.130;2022-12-24T08:17:27;11.80;99.90
48728;DHT22;34527;45.618;5.130;2022-12-24T08:19:53;11.80;99.90
48728;DHT22;34527;45.618;5.130;2022-12-24T08:22:18;11.80;99.90
48728;DHT22;34527;45.618;5.130;2022-12-24T08:24:44;11.80;99.90
48728;DHT22;34527;45.618;5.130;2022-12-24T08:27:10;11.80;99.90
48728;DHT22;34527;45.618;5.130;2022-12-24T08:29:36;11.70;99.90
48728;DHT22;34527;45.618;5.130;2022-12-24T08:32:02;11.80;99.90
48728;DHT22;34527;45.618;5.130;2022-12-24T08:34:28;11.80;99.90
48728;DHT22;34527;45.618;5.130;2022-12-24T08:36:54;11.80;99.90
48728;DHT22;34527;45.618;5.130;2022-12-24T08:39:19;11.90;99.90
48728;DHT22;34527;45.618;5.130;2022-12-24T08:41:45;11.80;99.90
48728;DHT22;34527;45.618;5.130;2022-12-24T08:44:11;11.80;99.90
48728;DHT22;34527;45.618;5.130;2022-12-24T08:46:37;11.70;99.90
48728;DHT22;34527;45.618;5.130;2022-12-24T08:49:03;11.80;99.90
48728;DHT22;34527;45.618;5.130;2022-12-24T08:51:28;11.90;99.90
48728;DHT22;34527;45.618;5.130;2022-12-24T08:53:54;11.90;99.90
48728;DHT22;34527;45.618;5.130;2022-12-24T08:56:20;12.00;99.90
48728;DHT22;34527;45.618;5.130;2022-12-24T08:58:46;12.00;99.90
48728;DHT22;34527;45.618;5.130;2022-12-24T09:01:18;11.90;99.90
48728;DHT22;34527;45.618;5.130;2022-12-24T09:03:44;12.00;99.90
48728;DHT22;34527;45.618;5.130;2022-12-24T09:06:10;12.10;99.90
48728;DHT22;34527;45.618;5.130;2022-12-24T09:08:36;12.10;99.90
48728;DHT22;34527;45.618;5.130;2022-12-24T09:11:04;12.10;99.90
48728;DHT22;34527;45.618;5.130;2022-12-24T09:13:31;12.00;99.90
48728;DHT22;34527;45.618;5.130;2022-12-24T09:15:57;12.00;99.90
48728;DHT22;34527;45.618;5.130;2022-12-24T09:18:23;12.10;99.90
48728;DHT22;34527;45.618;5.130;2022-12-24T09:20:49;12.20;99.90
48728;DHT22;34527;45.618;5.130;2022-12-24T09:23:15;12.20;99.90
48728;DHT22;34527;45.618;5.130;2022-12-24T09:25:42;12.20;99.90
48728;DHT22;34527;45.618;5.130;2022-12-24T09:28:08;12.20;99.90
48728;DHT22;34527;45.618;5.130;2022-12-24T09:30:34;12.30;99.90
48728;DHT22;34527;45.618;5.130;2022-12-24T09:33:00;12.40;99.90
48728;DHT22;34527;45.618;5.130;2022-12-24T09:35:26;12.30;99.90
48728;DHT22;34527;45.618;5.130;2022-12-24T09:37:52;12.30;99.90
48728;DHT22;34527;45.618;5.130;2022-12-24T09:40:38;12.30;99.90
48728;DHT22;34527;45.618;5.130;2022-12-24T09:48:28;12.50;99.90
48728;DHT22;34527;45.618;5.130;2022-12-24T09:51:00;12.50;99.90
48728;DHT22;34527;45.618;5.130;2022-12-24T09:53:50;12.40;99.90
48728;DHT22;34527;45.618;5.130;2022-12-24T09:56:24;12.40;99.90
48728;DHT22;34527;45.618;5.130;2022-12-24T09:59:02;12.40;99.90
48728;DHT22;34527;45.618;5.130;2022-12-24T10:01:31;12.50;99.90
48728;DHT22;34527;45.618;5.130;2022-12-24T10:04:02;12.60;99.90
48728;DHT22;34527;45.618;5.130;2022-12-24T10:06:35;12.60;99.90
48728;DHT22;34527;45.618;5.130;2022-12-24T10:18:07;13.00;99.90
48728;DHT22;34527;45.618;5.130;2022-12-24T10:20:43;13.00;99.90
48728;DHT22;34527;45.618;5.130;2022-12-24T10:23:18;13.00;99.90
48728;DHT22;34527;45.618;5.130;2022-12-24T10:28:45;12.80;99.90
48728;DHT22;34527;45.618;5.130;2022-12-24T10:31:12;12.70;99.90
48728;DHT22;34527;45.618;5.130;2022-12-24T10:33:47;12.60;99.90
48728;DHT22;34527;45.618;5.130;2022-12-24T10:36:23;12.60;99.90
48728;DHT22;34527;45.618;5.130;2022-12-24T10:38:51;12.70;99.90
48728;DHT22;34527;45.618;5.130;2022-12-24T10:41:17;12.60;99.90
48728;DHT22;34527;45.618;5.130;2022-12-24T10:43:44;12.70;99.90
48728;DHT22;34527;45.618;5.130;2022-12-24T10:46:37;12.70;99.90
48728;DHT22;34527;45.618;5.130;2022-12-24T10:49:18;12.80;99.90
48728;DHT22;34527;45.618;5.130;2022-12-24T10:51:53;12.80;99.90
48728;DHT22;34527;45.618;5.130;2022-12-24T10:54:21;12.90;99.90
48728;DHT22;34527;45.618;5.130;2022-12-24T10:56:51;12.90;99.90
48728;DHT22;34527;45.618;5.130;2022-12-24T11:01:52;13.10;99.90
48728;DHT22;34527;45.618;5.130;2022-12-24T11:04:22;13.20;99.90
48728;DHT22;34527;45.618;5.130;2022-12-24T11:06:59;13.10;99.90
48728;DHT22;34527;45.618;5.130;2022-12-24T11:09:37;13.10;99.90
48728;DHT22;34527;45.618;5.130;2022-12-24T11:12:17;13.20;99.90
48728;DHT22;34527;45.618;5.130;2022-12-24T11:14:46;13.20;99.90
48728;DHT22;34527;45.618;5.130;2022-12-24T11:17:21;13.30;99.90
48728;DHT22;34527;45.618;5.130;2022-12-24T11:19:48;13.30;99.90
48728;DHT22;34527;45.618;5.130;2022-12-24T11:22:24;13.30;99.90
48728;DHT22;34527;45.618;5.130;2022-12-24T11:25:07;13.40;99.90
48728;DHT22;34527;45.618;5.130;2022-12-24T11:27:43;13.40;99.90
48728;DHT22;34527;45.618;5.130;2022-12-24T11:32:45;13.50;99.90
48728;DHT22;34527;45.618;5.130;2022-12-24T11:35:22;13.50;99.90
48728;DHT22;34527;45.618;5.130;2022-12-24T11:40:41;13.50;99.90
48728;DHT22;34527;45.618;5.130;2022-12-24T11:43:18;13.60;99.90
48728;DHT22;34527;45.618;5.130;2022-12-24T11:45:55;13.60;99.90
48728;DHT22;34527;45.618;5.130;2022-12-24T11:48:32;13.60;99.90
48728;DHT22;34527;45.618;5.130;2022-12-24T11:51:04;13.60;99.90
48728;DHT22;34527;45.618;5.130;2022-12-24T11:53:35;13.50;99.90
48728;DHT22;34527;45.618;5.130;2022-12-24T11:56:11;13.40;99.90
48728;DHT22;34527;45.618;5.130;2022-12-24T11:58:46;13.50;99.90
48728;DHT22;34527;45.618;5.130;2022-12-24T12:01:54;13.40;99.90
48728;DHT22;34527;45.618;5.130;2022-12-24T12:04:24;13.40;99.90
48728;DHT22;34527;45.618;5.130;2022-12-24T12:10:20;13.30;99.90
48728;DHT22;34527;45.618;5.130;2022-12-24T12:13:09;13.30;99.90
48728;DHT22;34527;45.618;5.130;2022-12-24T12:20:48;13.30;99.90
48728;DHT22;34527;45.618;5.130;2022-12-24T12:23:29;13.30;99.90
48728;DHT22;34527;45.618;5.130;2022-12-24T12:26:09;13.30;99.90
48728;DHT22;34527;45.618;5.130;2022-12-24T12:31:21;13.40;99.90
48728;DHT22;34527;45.618;5.130;2022-12-24T12:34:03;13.50;99.90
48728;DHT22;34527;45.618;5.130;2022-12-24T12:36:39;13.50;99.90
48728;DHT22;34527;45.618;5.130;2022-12-24T12:39:08;13.50;99.90
48728;DHT22;34527;45.618;5.130;2022-12-24T12:44:38;13.50;99.90
48728;DHT22;34527;45.618;5.130;2022-12-24T12:47:17;13.40;99.90
48728;DHT22;34527;45.618;5.130;2022-12-24T12:58:19;13.50;99.90
48728;DHT22;34527;45.618;5.130;2022-12-24T13:00:52;13.30;99.90
48728;DHT22;34527;45.618;5.130;2022-12-24T13:06:24;13.40;99.90
48728;DHT22;34527;45.618;5.130;2022-12-24T13:09:14;13.40;99.90
48728;DHT22;34527;45.618;5.130;2022-12-24T13:17:00;13.60;99.90
48728;DHT22;34527;45.618;5.130;2022-12-24T13:21:56;13.60;99.90
48728;DHT22;34527;45.618;5.130;2022-12-24T13:24:27;13.60;99.90
48728;DHT22;34527;45.618;5.130;2022-12-24T13:27:04;13.60;99.90
48728;DHT22;34527;45.618;5.130;2022-12-24T13:34:53;13.60;99.90
48728;DHT22;34527;45.618;5.130;2022-12-24T13:37:31;13.70;99.90
48728;DHT22;34527;45.618;5.130;2022-12-24T13:48:12;13.70;99.90
48728;DHT22;34527;45.618;5.130;2022-12-24T13:50:53;13.70;99.90
48728;DHT22;34527;45.618;5.130;2022-12-24T13:53:26;13.70;99.90
48728;DHT22;34527;45.618;5.130;2022-12-24T13:56:21;13.70;99.90
48728;DHT22;34527;45.618;5.130;2022-12-24T13:58:54;13.70;99.90
48728;DHT22;34527;45.618;5.130;2022-12-24T14:01:36;13.70;99.90
48728;DHT22;34527;45.618;5.130;2022-12-24T14:04:04;13.70;99.90
48728;DHT22;34527;45.618;5.130;2022-12-24T14:06:38;13.70;99.90
48728;DHT22;34527;45.618;5.130;2022-12-24T14:09:15;13.70;99.90
48728;DHT22;34527;45.618;5.130;2022-12-24T14:14:40;13.70;99.90
48728;DHT22;34527;45.618;5.130;2022-12-24T14:17:21;13.70;99.90
48728;DHT22;34527;45.618;5.130;2022-12-24T14:19:51;13.80;99.90
48728;DHT22;34527;45.618;5.130;2022-12-24T14:22:39;13.70;99.90
48728;DHT22;34527;45.618;5.130;2022-12-24T14:27:45;13.70;99.90
48728;DHT22;34527;45.618;5.130;2022-12-24T14:30:28;13.70;99.90
48728;DHT22;34527;45.618;5.130;2022-12-24T14:32:55;13.60;99.90
48728;DHT22;34527;45.618;5.130;2022-12-24T14:35:29;13.60;99.90
48728;DHT22;34527;45.618;5.130;2022-12-24T14:38:11;13.60;99.90
48728;DHT22;34527;45.618;5.130;2022-12-24T14:43:53;13.60;99.90
48728;DHT22;34527;45.618;5.130;2022-12-24T14:46:37;13.60;99.90
48728;DHT22;34527;45.618;5.130;2022-12-24T14:50:02;13.60;99.90
48728;DHT22;34527;45.618;5.130;2022-12-24T14:52:44;13.60;99.90
48728;DHT22;34527;45.618;5.130;2022-12-24T14:55:39;13.60;99.90
48728;DHT22;34527;45.618;5.130;2022-12-24T15:00:47;13.60;99.90
48728;DHT22;34527;45.618;5.130;2022-12-24T15:03:16;13.50;99.90
48728;DHT22;34527;45.618;5.130;2022-12-24T15:05:42;13.60;99.90
48728;DHT22;34527;45.618;5.130;2022-12-24T15:08:14;13.50;99.90
48728;DHT22;34527;45.618;5.130;2022-12-24T15:10:43;13.50;99.90
48728;DHT22;34527;45.618;5.130;2022-12-24T15:13:29;13.50;99.90
48728;DHT22;34527;45.618;5.130;2022-12-24T15:15:56;13.40;99.90
48728;DHT22;34527;45.618;5.130;2022-12-24T15:18:34;13.40;99.90
48728;DHT22;34527;45.618;5.130;2022-12-24T15:21:03;13.40;99.90
48728;DHT22;34527;45.618;5.130;2022-12-24T15:23:32;13.30;99.90
48728;DHT22;34527;45.618;5.130;2022-12-24T15:26:31;13.30;99.90
48728;DHT22;34527;45.618;5.130;2022-12-24T15:29:00;13.20;99.90
48728;DHT22;34527;45.618;5.130;2022-12-24T15:31:27;13.10;99.90
48728;DHT22;34527;45.618;5.130;2022-12-24T15:33:55;13.10;99.90
48728;DHT22;34527;45.618;5.130;2022-12-24T15:36:32;13.10;99.90
48728;DHT22;34527;45.618;5.130;2022-12-24T15:39:02;13.00;99.90
48728;DHT22;34527;45.618;5.130;2022-12-24T15:41:39;13.00;99.90
48728;DHT22;34527;45.618;5.130;2022-12-24T15:44:31;12.90;99.90
48728;DHT22;34527;45.618;5.130;2022-12-24T15:46:59;12.80;99.90
48728;DHT22;34527;45.618;5.130;2022-12-24T15:49:29;12.70;99.90
48728;DHT22;34527;45.618;5.130;2022-12-24T15:54:29;12.50;99.90
48728;DHT22;34527;45.618;5.130;2022-12-24T15:56:55;12.50;99.90
48728;DHT22;34527;45.618;5.130;2022-12-24T15:59:28;12.40;99.90
48728;DHT22;34527;45.618;5.130;2022-12-24T16:01:55;12.30;99.90
48728;DHT22;34527;45.618;5.130;2022-12-24T16:04:26;12.20;99.90
48728;DHT22;34527;45.618;5.130;2022-12-24T16:06:58;12.00;99.90
48728;DHT22;34527;45.618;5.130;2022-12-24T16:09:41;12.00;99.90
48728;DHT22;34527;45.618;5.130;2022-12-24T16:12:18;12.00;99.90
48728;DHT22;34527;45.618;5.130;2022-12-24T16:14:51;12.00;99.90
48728;DHT22;34527;45.618;5.130;2022-12-24T16:17:23;11.80;99.90
48728;DHT22;34527;45.618;5.130;2022-12-24T16:19:52;11.80;99.90
48728;DHT22;34527;45.618;5.130;2022-12-24T16:22:21;11.60;99.90
48728;DHT22;34527;45.618;5.130;2022-12-24T16:25:00;11.50;99.90
48728;DHT22;34527;45.618;5.130;2022-12-24T16:27:27;11.50;99.90
48728;DHT22;34527;45.618;5.130;2022-12-24T16:29:53;11.40;99.90
48728;DHT22;34527;45.618;5.130;2022-12-24T16:32:32;11.40;99.90
48728;DHT22;34527;45.618;5.130;2022-12-24T16:34:59;11.40;99.90
48728;DHT22;34527;45.618;5.130;2022-12-24T16:37:26;11.30;99.90
48728;DHT22;34527;45.618;5.130;2022-12-24T16:39:53;11.20;99.90
48728;DHT22;34527;45.618;5.130;2022-12-24T16:42:19;11.20;99.90
48728;DHT22;34527;45.618;5.130;2022-12-24T16:45:03;11.20;99.90
48728;DHT22;34527;45.618;5.130;2022-12-24T16:47:33;11.30;99.90
48728;DHT22;34527;45.618;5.130;2022-12-24T16:50:00;11.10;99.90
48728;DHT22;34527;45.618;5.130;2022-12-24T16:52:28;11.10;99.90
48728;DHT22;34527;45.618;5.130;2022-12-24T16:54:56;10.90;99.90
48728;DHT22;34527;45.618;5.130;2022-12-24T16:57:22;10.80;99.90
48728;DHT22;34527;45.618;5.130;2022-12-24T16:59:49;10.90;99.90
48728;DHT22;34527;45.618;5.130;2022-12-24T17:02:19;10.90;99.90
48728;DHT22;34527;45.618;5.130;2022-12-24T17:04:46;10.90;99.90
48728;DHT22;34527;45.618;5.130;2022-12-24T17:07:13;10.80;99.90
48728;DHT22;34527;45.618;5.130;2022-12-24T17:09:39;10.70;99.90
48728;DHT22;34527;45.618;5.130;2022-12-24T17:12:06;10.60;99.90
48728;DHT22;34527;45.618;5.130;2022-12-24T17:14:32;10.60;99.90
48728;DHT22;34527;45.618;5.130;2022-12-24T17:16:58;10.60;99.90
48728;DHT22;34527;45.618;5.130;2022-12-24T17:19:24;10.50;99.90
48728;DHT22;34527;45.618;5.130;2022-12-24T17:21:50;10.50;99.90
48728;DHT22;34527;45.618;5.130;2022-12-24T17:24:15;10.50;99.90
48728;DHT22;34527;45.618;5.130;2022-12-24T17:26:41;10.50;99.90
48728;DHT22;34527;45.618;5.130;2022-12-24T17:29:10;10.40;99.90
48728;DHT22;34527;45.618;5.130;2022-12-24T17:31:36;10.40;99.90
48728;DHT22;34527;45.618;5.130;2022-12-24T17:34:03;10.30;99.90
48728;DHT22;34527;45.618;5.130;2022-12-24T17:36:29;10.30;99.90
48728;DHT22;34527;45.618;5.130;2022-12-24T17:38:55;10.20;99.90
48728;DHT22;34527;45.618;5.130;2022-12-24T17:41:21;10.20;99.90
48728;DHT22;34527;45.618;5.130;2022-12-24T17:43:48;10.10;99.90
48728;DHT22;34527;45.618;5.130;2022-12-24T17:46:21;10.10;99.90
48728;DHT22;34527;45.618;5.130;2022-12-24T17:48:48;10.10;99.90